Aircraft
UPR1005 PR-QAA Citation
VECC
Netaji Subhash Chandra Bose International Airport
ZLXY
Xi'an Xianyang International Airport
Pilot:: Eber
Aircraft:: Cessna Citation CJ4
Alternate: ZLLL
Network: ivao
FLIGHT DETAILS
Distance: 1281nm Duration 03h 42m
Cruise Speed: Flight Level: 41000
Validation: Validated Type Charter
Flight Fuel
ZFW: 5113
Block Fuel/Initial FOB: 2663
Flight Fuel: 2015
Cargo
Passengers: 6
Cargo: 0
ROUTE
ROUTE: SUMA2E SUMAG B465 CTG A599 SGM W144 IGNAK W179 WFX W233 AGULU W81 APIMI W275 NSH NSH1W
REMARKS:
DATE
Date: 26-05-07
Departure Time: 2231
Cargo: 0
FLIGHT DETAILS
Crashed: No
Validator Comments: Validado por Rafael
Flight Rating: 90
LANDING ANALYSIS
Landing wind: 330º/2 kt
Landing heading: 229º
Landing VS:: -178 ft/min
Landing IAS:: 107 kt
Landing Force G: 1 G
Landing Bank: 1
Landing Pitch: -1
Landing Flaps: 100
Navigation Lights: ON
Landing Lights: ON
Beacon Lights: ON
Strobe Lights: ON
viserfly

ALTITUDE CHART

viserfly

MAIN EVENTS

DATE EVENT IAS ALTITUDE
2026-05-06 22:26:39 FLYacars version 1.3.5 0 18
2026-05-06 22:26:39 Beacon Lights ON 0 18
2026-05-06 22:28:08 Taxi Lights ON 0 18
2026-05-06 22:28:09 Aircraft boarding in progress 0 18
2026-05-06 22:28:09 Navigation Lights ON 0 18
2026-05-06 22:28:09 Strobe Lights ON 0 18
2026-05-06 22:29:07 Starting Engine 2 0 18
2026-05-06 22:29:20 Starting Engine 1 0 18
2026-05-06 22:30:33 Aircraft taxiing to runway 5 18
2026-05-06 22:31:21 Landing Lights ON 0 19
2026-05-06 22:31:51 Detected Take-off roll, HDG 27, IAS 124kt, GS 129kt, G-force 1.0g, Pitch -6.9deg, Bank 0.2deg, Wind 020/00kt, Temp 23°C 124 19
2026-05-06 22:31:51 Airborne 124 19
2026-05-06 22:31:56 Stall flag 146 38
2026-05-06 22:32:15 Gear UP, IAS 192kt, GS 200kt, ALT 573ft AGL 192 590
2026-05-06 22:35:02 Landing Lights OFF 207 10639
2026-05-06 22:35:02 Taxi Lights OFF 207 10639
2026-05-06 22:52:32 Aircraft on Top Of Climb at 42597ft, IAS 166kt, GS 375kt, HDG 100deg, TAT -55deg, WIND 254/46kt 166 42597
2026-05-07 01:43:45 Aircraft on Top Of Descent at 40495ft, IAS 219kt, GS 426kt, HDG 30deg, TAT -53deg, WIND 280/80kt 219 40495
2026-05-07 01:55:10 Overspeed flag 306 14870
2026-05-07 02:01:23 Landing Lights ON 227 9854
2026-05-07 02:01:24 Taxi Lights ON 227 9833
2026-05-07 02:10:36 Gear DOWN, IAS 232kt, GS 253kt, ALT 2739ft AGL 232 4118
2026-05-07 02:10:54 FLAPS 50% 200kt, ALT 3932ft 200 3932
2026-05-07 02:10:54 FLAPS 100% 200kt, ALT 3932ft 200 3932
2026-05-07 02:13:41 Landed at destination with a landing rate of -178fpm, G-force 1.0g, Pitch -0.7deg, Bank 0.8deg, HDG 229deg, IAS 107kt, GS 112kt, Wind 330/02kt, Temp 20°C 107 1569
2026-05-07 02:14:00 Aircraft taxiing to apron 24 1568
2026-05-07 02:14:23 FLAPS 50% 20 1567
2026-05-07 02:14:23 FLAPS 0% 20 1567
2026-05-07 02:23:16 Landing Lights OFF 1 1568
2026-05-07 02:23:16 Taxi Lights OFF 1 1568
2026-05-07 02:23:17 Taxi Lights ON 1 1568
2026-05-07 02:23:18 Taxi Lights OFF 1 1568
2026-05-07 02:23:19 Strobe Lights OFF 2 1568
2026-05-07 02:23:20 Navigation Lights OFF 2 1568
2026-05-07 02:24:38 Engine 2 shutdown 3 1568
2026-05-07 02:24:39 Engine 1 shutdown 3 1568
2026-05-07 02:33:34 Aircraft at gate/stand, ground services are moving into position, disembarkation has begun. Remaining FOB 648kg FLYacars v1.3.5 2 1568
viserfly

ACARS DATA

DATE IAS GS ALTITUDE FUEL CONSUMED OAT FLIGHT STATUS
2026-05-06 22:27:09 0 0 18 0 23 BOARDING
2026-05-06 22:27:39 0 0 18 0 23 BOARDING
2026-05-06 22:28:09 0 0 18 0 23 BOARDING
2026-05-06 22:28:39 0 2 18 0 23 PUSHBACK
2026-05-06 22:29:09 0 0 18 0 23 PUSHBACK
2026-05-06 22:29:39 0 0 18 1 23 PUSHBACK
2026-05-06 22:30:09 0 0 18 2 23 PUSHBACK
2026-05-06 22:30:39 9 9 18 4 23 TAXI TO RUNWAY
2026-05-06 22:31:09 0 0 19 5 23 TAXI TO RUNWAY
2026-05-06 22:31:39 56 57 19 10 23 TAKEOFF
2026-05-06 22:32:09 186 192 345 24 23 TAKEOFF
2026-05-06 22:32:39 206 227 1884 35 23 INITIAL CLIMB
2026-05-06 22:33:09 208 231 3777 45 20 CLIMB
2026-05-06 22:33:39 209 229 5760 55 17 CLIMB
2026-05-06 22:34:09 208 232 7628 66 13 CLIMB
2026-05-06 22:34:39 207 248 9392 76 9 CLIMB
2026-05-06 22:35:09 208 261 11022 87 6 CLIMB
2026-05-06 22:35:39 207 272 12537 97 3 CLIMB
2026-05-06 22:36:09 208 265 14025 108 1 CLIMB
2026-05-06 22:36:39 208 276 15504 118 -1 CLIMB
2026-05-06 22:37:09 208 282 16905 128 -4 CLIMB
2026-05-06 22:37:39 209 287 18232 138 -6 CLIMB
2026-05-06 22:38:09 208 293 19484 147 -8 CLIMB
2026-05-06 22:38:39 208 300 20684 157 -11 CLIMB
2026-05-06 22:39:09 208 307 21847 166 -13 CLIMB
2026-05-06 22:39:39 208 313 22963 176 -15 CLIMB
2026-05-06 22:40:09 208 321 24007 185 -17 CLIMB
2026-05-06 22:40:39 209 327 25044 194 -19 CLIMB
2026-05-06 22:41:09 208 349 26054 203 -20 CLIMB
2026-05-06 22:41:39 218 376 26645 212 -21 CLIMB
2026-05-06 22:42:09 218 379 27533 221 -22 CLIMB
2026-05-06 22:42:39 218 386 28370 229 -24 CLIMB
2026-05-06 22:43:09 218 392 29161 238 -25 CLIMB
2026-05-06 22:43:39 215 394 30015 246 -26 CLIMB
2026-05-06 22:44:09 211 394 30897 254 -27 CLIMB
2026-05-06 22:44:39 208 393 31758 262 -29 CLIMB
2026-05-06 22:45:09 204 392 32604 269 -31 CLIMB
2026-05-06 22:45:39 200 391 33422 277 -33 CLIMB
2026-05-06 22:46:09 197 390 34211 284 -35 CLIMB
2026-05-06 22:46:39 194 388 34977 291 -37 CLIMB
2026-05-06 22:47:09 191 387 35724 298 -39 CLIMB
2026-05-06 22:47:39 188 386 36452 305 -40 CLIMB
2026-05-06 22:48:09 185 385 37172 311 -42 CLIMB
2026-05-06 22:48:39 182 383 37873 318 -44 CLIMB
2026-05-06 22:49:09 179 382 38555 324 -45 CLIMB
2026-05-06 22:49:39 176 381 39206 330 -47 CLIMB
2026-05-06 22:50:09 173 380 39824 336 -48 CLIMB
2026-05-06 22:50:39 171 377 40471 342 -50 CLIMB
2026-05-06 22:51:09 169 376 41070 347 -52 CLIMB
2026-05-06 22:51:39 167 374 41662 353 -53 CLIMB
2026-05-06 22:52:09 164 371 42299 358 -55 CLIMB
2026-05-06 22:52:39 167 378 42622 364 -55 ENROUTE
2026-05-06 22:53:09 175 393 42672 369 -56 ENROUTE
2026-05-06 22:53:39 180 401 42671 374 -56 ENROUTE
2026-05-06 22:54:09 183 406 42674 378 -55 ENROUTE
2026-05-06 22:54:39 186 412 42673 382 -55 ENROUTE
2026-05-06 22:55:09 189 416 42672 386 -55 ENROUTE
2026-05-06 22:55:39 191 420 42670 391 -55 ENROUTE
2026-05-06 22:56:09 192 423 42669 395 -55 ENROUTE
2026-05-06 22:56:39 194 426 42673 399 -55 ENROUTE
2026-05-06 22:57:09 195 428 42676 403 -55 ENROUTE
2026-05-06 22:57:39 197 430 42673 408 -55 ENROUTE
2026-05-06 22:58:09 197 432 42673 412 -55 ENROUTE
2026-05-06 22:58:39 198 433 42677 416 -55 ENROUTE
2026-05-06 22:59:09 199 434 42675 420 -55 ENROUTE
2026-05-06 22:59:39 199 435 42676 424 -55 ENROUTE
2026-05-06 23:00:09 200 436 42676 429 -55 ENROUTE
2026-05-06 23:00:39 200 437 42679 433 -55 ENROUTE
2026-05-06 23:01:09 201 438 42673 437 -55 ENROUTE
2026-05-06 23:01:39 201 438 42676 441 -55 ENROUTE
2026-05-06 23:02:09 201 439 42675 445 -55 ENROUTE
2026-05-06 23:02:39 201 439 42674 450 -55 ENROUTE
2026-05-06 23:03:09 202 439 42678 454 -55 ENROUTE
2026-05-06 23:03:39 202 439 42680 458 -55 ENROUTE
2026-05-06 23:04:09 202 439 42682 462 -55 ENROUTE
2026-05-06 23:04:39 202 439 42683 466 -55 ENROUTE
2026-05-06 23:05:09 202 442 42684 470 -55 ENROUTE
2026-05-06 23:05:39 202 443 42687 475 -55 ENROUTE
2026-05-06 23:06:09 202 442 42691 479 -55 ENROUTE
2026-05-06 23:06:39 203 443 42692 483 -55 ENROUTE
2026-05-06 23:07:09 203 443 42691 487 -55 ENROUTE
2026-05-06 23:07:39 203 443 42691 491 -55 ENROUTE
2026-05-06 23:08:09 203 443 42693 495 -55 ENROUTE
2026-05-06 23:08:39 203 443 42695 500 -55 ENROUTE
2026-05-06 23:09:09 203 443 42696 504 -55 ENROUTE
2026-05-06 23:09:39 203 443 42697 508 -55 ENROUTE
2026-05-06 23:10:09 203 443 42698 512 -55 ENROUTE
2026-05-06 23:10:39 203 443 42697 516 -55 ENROUTE
2026-05-06 23:11:09 203 443 42698 521 -55 ENROUTE
2026-05-06 23:11:39 205 443 42702 525 -56 ENROUTE
2026-05-06 23:12:09 204 443 42702 529 -56 ENROUTE
2026-05-06 23:12:39 204 443 42703 533 -56 ENROUTE
2026-05-06 23:13:09 204 442 42705 537 -56 ENROUTE
2026-05-06 23:13:39 202 440 42700 541 -55 ENROUTE
2026-05-06 23:14:09 203 440 42698 546 -55 ENROUTE
2026-05-06 23:14:39 202 440 42702 550 -56 ENROUTE
2026-05-06 23:15:09 201 439 42699 554 -55 ENROUTE
2026-05-06 23:15:39 202 440 42698 558 -55 ENROUTE
2026-05-06 23:16:09 201 439 42695 562 -55 ENROUTE
2026-05-06 23:16:39 201 439 42698 566 -55 ENROUTE
2026-05-06 23:17:09 202 439 42699 571 -55 ENROUTE
2026-05-06 23:17:39 201 440 42694 575 -55 ENROUTE
2026-05-06 23:18:09 202 440 42698 579 -55 ENROUTE
2026-05-06 23:18:39 202 441 42701 583 -56 ENROUTE
2026-05-06 23:19:09 203 441 42706 587 -56 ENROUTE
2026-05-06 23:19:39 203 443 42698 592 -55 ENROUTE
2026-05-06 23:20:09 205 442 42706 596 -56 ENROUTE
2026-05-06 23:20:39 205 441 42714 600 -56 ENROUTE
2026-05-06 23:21:09 204 440 42713 604 -56 ENROUTE
2026-05-06 23:21:39 204 440 42716 608 -56 ENROUTE
2026-05-06 23:22:09 204 440 42715 612 -56 ENROUTE
2026-05-06 23:22:39 204 439 42714 616 -56 ENROUTE
2026-05-06 23:23:09 204 440 42716 621 -56 ENROUTE
2026-05-06 23:23:39 204 440 42714 625 -56 ENROUTE
2026-05-06 23:24:09 204 440 42716 629 -56 ENROUTE
2026-05-06 23:24:39 204 440 42714 633 -56 ENROUTE
2026-05-06 23:25:09 204 439 42714 637 -56 ENROUTE
2026-05-06 23:25:39 204 439 42714 642 -56 ENROUTE
2026-05-06 23:26:09 204 439 42715 646 -56 ENROUTE
2026-05-06 23:26:39 203 439 42713 650 -56 ENROUTE
2026-05-06 23:27:09 203 439 42718 654 -56 ENROUTE
2026-05-06 23:27:39 203 439 42718 658 -56 ENROUTE
2026-05-06 23:28:09 203 439 42718 662 -56 ENROUTE
2026-05-06 23:28:39 203 439 42718 667 -56 ENROUTE
2026-05-06 23:29:09 203 439 42717 671 -56 ENROUTE
2026-05-06 23:29:39 203 439 42717 675 -56 ENROUTE
2026-05-06 23:30:09 203 439 42716 679 -56 ENROUTE
2026-05-06 23:30:39 203 440 42716 683 -56 ENROUTE
2026-05-06 23:31:09 202 440 42715 687 -56 ENROUTE
2026-05-06 23:31:39 205 443 42580 692 -56 DESCENT
2026-05-06 23:32:09 205 444 42553 696 -55 ENROUTE
2026-05-06 23:32:39 205 444 42553 700 -55 ENROUTE
2026-05-06 23:33:09 205 443 42551 704 -55 ENROUTE
2026-05-06 23:33:39 205 443 42552 709 -55 ENROUTE
2026-05-06 23:34:09 205 443 42550 713 -55 ENROUTE
2026-05-06 23:34:39 205 443 42550 717 -55 ENROUTE
2026-05-06 23:35:09 205 443 42551 721 -55 ENROUTE
2026-05-06 23:35:39 205 443 42551 725 -55 ENROUTE
2026-05-06 23:36:09 205 442 42551 730 -55 ENROUTE
2026-05-06 23:36:39 205 442 42552 734 -55 ENROUTE
2026-05-06 23:37:09 205 442 42552 738 -56 ENROUTE
2026-05-06 23:37:39 204 443 42550 742 -56 ENROUTE
2026-05-06 23:38:09 204 443 42551 746 -55 ENROUTE
2026-05-06 23:38:39 205 443 42551 751 -55 ENROUTE
2026-05-06 23:39:09 204 444 42553 755 -56 ENROUTE
2026-05-06 23:39:39 205 444 42554 759 -55 ENROUTE
2026-05-06 23:40:09 205 444 42555 763 -55 ENROUTE
2026-05-06 23:40:39 205 444 42553 767 -55 ENROUTE
2026-05-06 23:41:09 205 444 42552 772 -55 ENROUTE
2026-05-06 23:41:39 205 444 42552 776 -55 ENROUTE
2026-05-06 23:42:09 205 444 42553 780 -55 ENROUTE
2026-05-06 23:42:39 205 444 42554 784 -55 ENROUTE
2026-05-06 23:43:09 204 444 42555 789 -55 ENROUTE
2026-05-06 23:43:39 205 445 42553 793 -55 ENROUTE
2026-05-06 23:44:09 204 445 42554 797 -55 ENROUTE
2026-05-06 23:44:39 204 445 42555 801 -55 ENROUTE
2026-05-06 23:45:09 204 444 42555 805 -55 ENROUTE
2026-05-06 23:45:39 204 444 42551 810 -55 ENROUTE
2026-05-06 23:46:09 204 444 42551 814 -55 ENROUTE
2026-05-06 23:46:39 204 444 42551 818 -55 ENROUTE
2026-05-06 23:47:09 203 444 42547 822 -55 ENROUTE
2026-05-06 23:47:39 203 445 42547 826 -55 ENROUTE
2026-05-06 23:48:09 203 445 42548 831 -55 ENROUTE
2026-05-06 23:48:39 204 446 42550 835 -55 ENROUTE
2026-05-06 23:49:09 204 445 42556 839 -55 ENROUTE
2026-05-06 23:49:39 205 445 42559 843 -55 ENROUTE
2026-05-06 23:50:09 204 445 42559 847 -55 ENROUTE
2026-05-06 23:50:39 204 444 42563 852 -55 ENROUTE
2026-05-06 23:51:09 204 445 42566 856 -55 ENROUTE
2026-05-06 23:51:39 204 445 42566 860 -55 ENROUTE
2026-05-06 23:52:09 206 445 42573 864 -55 ENROUTE
2026-05-06 23:52:39 206 445 42571 868 -55 ENROUTE
2026-05-06 23:53:09 206 445 42571 873 -55 ENROUTE
2026-05-06 23:53:39 206 445 42571 877 -55 ENROUTE
2026-05-06 23:54:09 206 444 42571 881 -55 ENROUTE
2026-05-06 23:54:39 206 444 42571 885 -55 ENROUTE
2026-05-06 23:55:09 207 444 42572 889 -55 ENROUTE
2026-05-06 23:55:39 205 443 42567 894 -55 ENROUTE
2026-05-06 23:56:09 206 443 42563 898 -55 ENROUTE
2026-05-06 23:56:39 205 443 42564 902 -55 ENROUTE
2026-05-06 23:57:09 205 443 42559 906 -55 ENROUTE
2026-05-06 23:57:39 206 443 42559 910 -55 ENROUTE
2026-05-06 23:58:09 206 443 42563 915 -55 ENROUTE
2026-05-06 23:58:39 206 443 42563 919 -55 ENROUTE
2026-05-06 23:59:09 205 444 42564 923 -55 ENROUTE
2026-05-06 23:59:39 206 443 42564 927 -55 ENROUTE
2026-05-07 00:00:09 206 443 42575 931 -55 ENROUTE
2026-05-07 00:00:39 206 444 42574 936 -56 ENROUTE
2026-05-07 00:01:09 207 444 42577 940 -56 ENROUTE
2026-05-07 00:01:39 206 444 42577 944 -56 ENROUTE
2026-05-07 00:02:09 205 445 42558 948 -55 ENROUTE
2026-05-07 00:02:39 205 446 42557 952 -55 ENROUTE
2026-05-07 00:03:09 205 445 42555 957 -55 ENROUTE
2026-05-07 00:03:39 205 444 42560 961 -55 ENROUTE
2026-05-07 00:04:09 205 445 42561 965 -56 ENROUTE
2026-05-07 00:04:39 205 445 42564 969 -56 ENROUTE
2026-05-07 00:05:09 206 446 42552 973 -56 ENROUTE
2026-05-07 00:05:39 206 446 42558 978 -56 ENROUTE
2026-05-07 00:06:09 207 446 42560 982 -55 ENROUTE
2026-05-07 00:06:39 206 446 42560 986 -55 ENROUTE
2026-05-07 00:07:09 204 446 42542 990 -55 ENROUTE
2026-05-07 00:07:39 204 446 42544 994 -55 ENROUTE
2026-05-07 00:08:09 205 448 42541 999 -55 ENROUTE
2026-05-07 00:08:39 205 447 42538 1003 -55 ENROUTE
2026-05-07 00:09:09 205 448 42539 1007 -55 ENROUTE
2026-05-07 00:09:39 205 448 42541 1011 -55 ENROUTE
2026-05-07 00:10:09 207 448 42545 1015 -55 ENROUTE
2026-05-07 00:10:39 206 447 42543 1020 -55 ENROUTE
2026-05-07 00:11:09 206 447 42542 1024 -55 ENROUTE
2026-05-07 00:11:39 204 447 42533 1028 -55 ENROUTE
2026-05-07 00:12:09 204 447 42537 1032 -55 ENROUTE
2026-05-07 00:12:39 204 448 42534 1036 -55 ENROUTE
2026-05-07 00:13:09 205 449 42536 1040 -55 ENROUTE
2026-05-07 00:13:39 205 449 42533 1044 -55 ENROUTE
2026-05-07 00:14:09 204 448 42540 1048 -55 ENROUTE
2026-05-07 00:14:39 205 448 42537 1052 -55 ENROUTE
2026-05-07 00:15:09 204 447 42539 1056 -55 ENROUTE
2026-05-07 00:15:39 204 447 42533 1060 -55 ENROUTE
2026-05-07 00:16:09 202 447 42527 1065 -55 ENROUTE
2026-05-07 00:16:39 203 449 42516 1069 -55 ENROUTE
2026-05-07 00:17:09 204 450 42518 1073 -55 ENROUTE
2026-05-07 00:17:39 204 451 42522 1077 -55 ENROUTE
2026-05-07 00:18:09 204 451 42523 1081 -55 ENROUTE
2026-05-07 00:18:39 205 452 42523 1086 -55 ENROUTE
2026-05-07 00:19:09 206 453 42522 1090 -55 ENROUTE
2026-05-07 00:19:39 207 453 42532 1094 -55 ENROUTE
2026-05-07 00:20:09 207 453 42535 1098 -55 ENROUTE
2026-05-07 00:20:39 206 452 42534 1102 -55 ENROUTE
2026-05-07 00:21:09 206 453 42514 1107 -54 ENROUTE
2026-05-07 00:21:39 207 453 42513 1111 -54 ENROUTE
2026-05-07 00:22:09 206 453 42507 1115 -54 ENROUTE
2026-05-07 00:22:39 207 452 42523 1119 -55 ENROUTE
2026-05-07 00:23:09 207 451 42524 1123 -55 ENROUTE
2026-05-07 00:23:39 206 450 42523 1127 -55 ENROUTE
2026-05-07 00:24:09 207 450 42522 1132 -55 ENROUTE
2026-05-07 00:24:39 206 449 42521 1136 -55 ENROUTE
2026-05-07 00:25:09 206 449 42524 1140 -55 ENROUTE
2026-05-07 00:25:39 206 448 42534 1144 -55 ENROUTE
2026-05-07 00:26:09 206 448 42536 1148 -55 ENROUTE
2026-05-07 00:26:39 207 449 42541 1153 -55 ENROUTE
2026-05-07 00:27:09 207 449 42540 1157 -55 ENROUTE
2026-05-07 00:27:39 206 448 42540 1161 -55 ENROUTE
2026-05-07 00:28:09 207 449 42540 1165 -55 ENROUTE
2026-05-07 00:28:39 207 448 42536 1169 -55 ENROUTE
2026-05-07 00:29:09 207 445 42541 1173 -55 ENROUTE
2026-05-07 00:29:39 205 436 42542 1178 -55 ENROUTE
2026-05-07 00:30:09 206 423 42548 1182 -55 ENROUTE
2026-05-07 00:30:39 205 422 42546 1186 -55 ENROUTE
2026-05-07 00:31:09 205 431 42544 1190 -55 ENROUTE
2026-05-07 00:31:39 205 430 42542 1194 -55 ENROUTE
2026-05-07 00:32:09 205 429 42539 1199 -55 ENROUTE
2026-05-07 00:32:39 205 431 42524 1203 -55 ENROUTE
2026-05-07 00:33:09 205 431 42524 1207 -55 ENROUTE
2026-05-07 00:33:39 206 432 42524 1211 -55 ENROUTE
2026-05-07 00:34:09 206 432 42528 1215 -55 ENROUTE
2026-05-07 00:34:39 207 432 42529 1219 -55 ENROUTE
2026-05-07 00:35:09 206 433 42513 1224 -55 ENROUTE
2026-05-07 00:35:39 206 433 42512 1228 -55 ENROUTE
2026-05-07 00:36:09 206 433 42513 1232 -55 ENROUTE
2026-05-07 00:36:39 206 433 42512 1236 -55 ENROUTE
2026-05-07 00:37:09 204 431 42515 1240 -55 ENROUTE
2026-05-07 00:37:39 205 432 42505 1245 -55 ENROUTE
2026-05-07 00:38:09 206 432 42501 1249 -55 ENROUTE
2026-05-07 00:38:39 206 434 42504 1253 -55 ENROUTE
2026-05-07 00:39:09 206 435 42511 1257 -55 ENROUTE
2026-05-07 00:39:39 206 435 42505 1261 -55 ENROUTE
2026-05-07 00:40:09 207 436 42502 1266 -55 ENROUTE
2026-05-07 00:40:39 207 436 42489 1270 -55 ENROUTE
2026-05-07 00:41:09 207 437 42484 1274 -55 ENROUTE
2026-05-07 00:41:39 207 437 42485 1278 -55 ENROUTE
2026-05-07 00:42:09 207 436 42489 1282 -55 ENROUTE
2026-05-07 00:42:39 206 436 42489 1286 -55 ENROUTE
2026-05-07 00:43:09 207 437 42473 1291 -55 ENROUTE
2026-05-07 00:43:39 207 437 42474 1295 -55 ENROUTE
2026-05-07 00:44:09 207 437 42474 1299 -55 ENROUTE
2026-05-07 00:44:39 207 437 42474 1303 -55 ENROUTE
2026-05-07 00:45:09 207 437 42474 1307 -55 ENROUTE
2026-05-07 00:45:39 207 438 42453 1312 -55 ENROUTE
2026-05-07 00:46:09 207 436 42455 1316 -55 ENROUTE
2026-05-07 00:46:39 206 435 42452 1320 -55 ENROUTE
2026-05-07 00:47:09 206 435 42450 1324 -55 ENROUTE
2026-05-07 00:47:39 206 436 42448 1328 -55 ENROUTE
2026-05-07 00:48:09 205 439 42430 1333 -55 ENROUTE
2026-05-07 00:48:39 205 437 42431 1337 -55 ENROUTE
2026-05-07 00:49:09 205 438 42433 1341 -55 ENROUTE
2026-05-07 00:49:39 205 437 42434 1345 -55 ENROUTE
2026-05-07 00:50:09 206 438 42436 1349 -55 ENROUTE
2026-05-07 00:50:39 206 439 42438 1354 -56 ENROUTE
2026-05-07 00:51:09 204 441 42409 1358 -56 ENROUTE
2026-05-07 00:51:39 206 439 42402 1362 -56 DESCENT
2026-05-07 00:52:09 204 436 42400 1366 -56 ENROUTE
2026-05-07 00:52:39 204 436 42404 1371 -56 ENROUTE
2026-05-07 00:53:09 205 437 42400 1375 -56 ENROUTE
2026-05-07 00:53:39 204 436 42406 1379 -56 ENROUTE
2026-05-07 00:54:09 204 437 42401 1383 -56 ENROUTE
2026-05-07 00:54:39 205 437 42403 1387 -56 ENROUTE
2026-05-07 00:55:09 204 437 42394 1392 -56 ENROUTE
2026-05-07 00:55:39 204 436 42404 1396 -56 ENROUTE
2026-05-07 00:56:09 203 437 42387 1400 -56 ENROUTE
2026-05-07 00:56:39 204 438 42377 1404 -56 ENROUTE
2026-05-07 00:57:09 205 440 42375 1408 -56 ENROUTE
2026-05-07 00:57:39 205 441 42372 1413 -56 ENROUTE
2026-05-07 00:58:09 206 441 42375 1417 -56 ENROUTE
2026-05-07 00:58:39 206 443 42355 1421 -55 ENROUTE
2026-05-07 00:59:09 207 444 42354 1425 -55 ENROUTE
2026-05-07 00:59:39 207 444 42352 1429 -55 ENROUTE
2026-05-07 01:00:09 207 444 42351 1434 -55 ENROUTE
2026-05-07 01:00:39 206 443 42354 1438 -55 ENROUTE
2026-05-07 01:01:09 207 444 42334 1442 -55 ENROUTE
2026-05-07 01:01:39 207 444 42331 1446 -55 ENROUTE
2026-05-07 01:02:09 207 444 42334 1450 -55 ENROUTE
2026-05-07 01:02:39 207 444 42332 1455 -55 ENROUTE
2026-05-07 01:03:09 207 443 42336 1459 -55 ENROUTE
2026-05-07 01:03:39 207 444 42320 1463 -55 ENROUTE
2026-05-07 01:04:09 207 443 42320 1467 -55 ENROUTE
2026-05-07 01:04:39 207 443 42320 1471 -55 ENROUTE
2026-05-07 01:05:09 207 443 42320 1476 -55 ENROUTE
2026-05-07 01:05:39 207 443 42320 1480 -55 ENROUTE
2026-05-07 01:06:09 207 443 42303 1484 -55 ENROUTE
2026-05-07 01:06:39 207 443 42295 1488 -55 ENROUTE
2026-05-07 01:07:09 207 443 42296 1492 -55 ENROUTE
2026-05-07 01:07:39 207 443 42296 1497 -55 ENROUTE
2026-05-07 01:08:09 207 442 42296 1501 -55 ENROUTE
2026-05-07 01:08:39 207 443 42274 1505 -55 ENROUTE
2026-05-07 01:09:09 207 443 42274 1509 -55 ENROUTE
2026-05-07 01:09:39 207 442 42274 1513 -55 ENROUTE
2026-05-07 01:10:09 207 442 42274 1517 -55 ENROUTE
2026-05-07 01:10:39 207 442 42274 1522 -55 ENROUTE
2026-05-07 01:11:09 207 443 42253 1526 -55 ENROUTE
2026-05-07 01:11:39 207 443 42254 1530 -55 ENROUTE
2026-05-07 01:12:09 207 442 42254 1534 -55 ENROUTE
2026-05-07 01:12:39 207 442 42255 1538 -55 ENROUTE
2026-05-07 01:13:09 207 442 42254 1543 -55 ENROUTE
2026-05-07 01:13:39 207 442 42233 1547 -55 ENROUTE
2026-05-07 01:14:09 207 442 42232 1551 -55 ENROUTE
2026-05-07 01:14:39 207 442 42232 1555 -55 ENROUTE
2026-05-07 01:15:09 207 442 42233 1559 -55 ENROUTE
2026-05-07 01:15:39 206 441 42232 1564 -55 ENROUTE
2026-05-07 01:16:09 207 442 42201 1568 -55 ENROUTE
2026-05-07 01:16:39 208 442 42204 1572 -55 ENROUTE
2026-05-07 01:17:09 207 441 42204 1576 -55 ENROUTE
2026-05-07 01:17:39 207 440 42205 1580 -55 ENROUTE
2026-05-07 01:18:09 207 440 42204 1584 -55 ENROUTE
2026-05-07 01:18:39 207 440 42202 1589 -55 ENROUTE
2026-05-07 01:19:09 207 440 42204 1593 -55 ENROUTE
2026-05-07 01:19:39 207 440 42204 1597 -55 ENROUTE
2026-05-07 01:20:09 206 440 42204 1601 -55 ENROUTE
2026-05-07 01:20:39 206 440 42183 1605 -55 ENROUTE
2026-05-07 01:21:09 206 440 42183 1610 -55 ENROUTE
2026-05-07 01:21:39 207 440 42185 1614 -55 ENROUTE
2026-05-07 01:22:09 207 440 42187 1618 -55 ENROUTE
2026-05-07 01:22:39 207 440 42186 1622 -55 ENROUTE
2026-05-07 01:23:09 206 441 42153 1626 -55 ENROUTE
2026-05-07 01:23:39 207 441 42154 1631 -55 ENROUTE
2026-05-07 01:24:09 206 441 42153 1635 -55 ENROUTE
2026-05-07 01:24:39 207 441 42153 1639 -55 ENROUTE
2026-05-07 01:25:09 207 441 42154 1643 -55 ENROUTE
2026-05-07 01:25:39 207 443 42127 1647 -54 ENROUTE
2026-05-07 01:26:09 208 442 42130 1652 -55 ENROUTE
2026-05-07 01:26:39 208 442 42132 1656 -55 ENROUTE
2026-05-07 01:27:09 208 442 42133 1660 -55 ENROUTE
2026-05-07 01:27:39 208 442 42125 1664 -55 ENROUTE
2026-05-07 01:28:09 207 441 42101 1669 -54 ENROUTE
2026-05-07 01:28:39 207 441 42096 1673 -54 ENROUTE
2026-05-07 01:29:09 208 442 42098 1677 -54 ENROUTE
2026-05-07 01:29:39 208 442 42097 1681 -54 ENROUTE
2026-05-07 01:30:09 208 442 42071 1685 -55 ENROUTE
2026-05-07 01:30:39 209 442 42069 1690 -55 ENROUTE
2026-05-07 01:31:09 209 442 42067 1694 -55 ENROUTE
2026-05-07 01:31:39 207 440 42068 1698 -55 ENROUTE
2026-05-07 01:32:09 207 439 42071 1702 -55 ENROUTE
2026-05-07 01:32:39 208 439 42039 1706 -55 ENROUTE
2026-05-07 01:33:09 207 438 42039 1711 -55 ENROUTE
2026-05-07 01:33:39 207 439 42043 1715 -55 ENROUTE
2026-05-07 01:34:09 207 437 42039 1719 -55 ENROUTE
2026-05-07 01:34:39 207 438 42011 1723 -55 DESCENT
2026-05-07 01:35:09 207 437 42008 1728 -55 ENROUTE
2026-05-07 01:35:39 206 436 41999 1732 -55 ENROUTE
2026-05-07 01:36:09 206 435 42012 1736 -55 ENROUTE
2026-05-07 01:36:39 205 434 42012 1740 -55 ENROUTE
2026-05-07 01:37:09 207 450 41981 1744 -55 ENROUTE
2026-05-07 01:37:39 208 471 41984 1749 -55 ENROUTE
2026-05-07 01:38:09 208 485 41988 1753 -55 ENROUTE
2026-05-07 01:38:39 210 488 41986 1757 -55 ENROUTE
2026-05-07 01:39:09 211 481 41980 1761 -55 ENROUTE
2026-05-07 01:39:39 209 478 41980 1765 -55 ENROUTE
2026-05-07 01:40:09 206 480 41987 1770 -55 ENROUTE
2026-05-07 01:40:39 209 480 41979 1774 -55 ENROUTE
2026-05-07 01:41:09 210 482 41950 1778 -56 ENROUTE
2026-05-07 01:41:39 209 480 41955 1782 -56 ENROUTE
2026-05-07 01:42:09 209 481 41953 1787 -56 ENROUTE
2026-05-07 01:42:39 209 473 41952 1791 -56 ENROUTE
2026-05-07 01:43:09 211 454 41831 1795 -55 DESCENT
2026-05-07 01:43:39 219 432 40748 1798 -54 DESCENT
2026-05-07 01:44:09 220 397 39551 1800 -52 DESCENT
2026-05-07 01:44:39 215 376 38580 1802 -50 DESCENT
2026-05-07 01:45:09 210 374 37683 1804 -49 DESCENT
2026-05-07 01:45:39 212 390 36663 1806 -48 DESCENT
2026-05-07 01:46:09 218 394 35321 1808 -45 DESCENT
2026-05-07 01:46:39 228 402 34184 1811 -43 DESCENT
2026-05-07 01:47:09 249 427 33114 1816 -41 DESCENT
2026-05-07 01:47:39 266 446 31933 1821 -38 DESCENT
2026-05-07 01:48:09 281 462 30652 1826 -35 DESCENT
2026-05-07 01:48:39 293 467 29455 1831 -32 DESCENT
2026-05-07 01:49:09 298 466 28250 1836 -29 DESCENT
2026-05-07 01:49:39 285 439 27030 1839 -26 DESCENT
2026-05-07 01:50:09 282 435 25807 1842 -23 DESCENT
2026-05-07 01:50:39 285 429 24530 1846 -20 DESCENT
2026-05-07 01:51:09 286 423 23344 1850 -18 DESCENT
2026-05-07 01:51:39 287 415 22243 1853 -17 DESCENT
2026-05-07 01:52:09 290 409 21156 1858 -15 DESCENT
2026-05-07 01:52:39 295 404 20026 1862 -14 DESCENT
2026-05-07 01:53:09 289 385 18885 1865 -12 DESCENT
2026-05-07 01:53:39 281 366 17860 1867 -10 DESCENT
2026-05-07 01:54:09 285 364 16913 1871 -9 DESCENT
2026-05-07 01:54:39 292 367 15942 1876 -7 DESCENT
2026-05-07 01:55:09 303 370 14923 1880 -5 DESCENT
2026-05-07 01:55:39 267 318 13926 1882 -3 DESCENT
2026-05-07 01:56:09 238 277 13158 1884 -2 DESCENT
2026-05-07 01:56:39 226 255 12394 1885 -2 DESCENT
2026-05-07 01:57:09 219 243 11655 1887 -1 DESCENT
2026-05-07 01:57:39 217 236 11090 1888 -1 DESCENT
2026-05-07 01:58:09 215 232 10681 1890 -1 ENROUTE
2026-05-07 01:58:39 228 250 10607 1894 -1 ENROUTE
2026-05-07 01:59:09 240 265 10638 1899 -1 ENROUTE
2026-05-07 01:59:39 247 273 10702 1904 -1 ENROUTE
2026-05-07 02:00:09 250 278 10775 1909 -1 ENROUTE
2026-05-07 02:00:39 253 279 10801 1914 -1 DESCENT
2026-05-07 02:01:09 231 250 10170 1915 -1 DESCENT
2026-05-07 02:01:39 223 239 9528 1916 0 DESCENT
2026-05-07 02:02:09 222 237 8924 1918 2 DESCENT
2026-05-07 02:02:39 224 237 8307 1919 3 DESCENT
2026-05-07 02:03:09 217 228 7913 1921 4 ENROUTE
2026-05-07 02:03:39 204 214 7882 1923 4 ENROUTE
2026-05-07 02:04:09 207 216 7882 1926 4 ENROUTE
2026-05-07 02:04:39 211 222 7883 1929 4 ENROUTE
2026-05-07 02:05:09 217 228 7890 1932 4 ENROUTE
2026-05-07 02:05:39 221 233 7901 1935 4 ENROUTE
2026-05-07 02:06:09 223 236 7892 1939 5 ENROUTE
2026-05-07 02:06:39 226 239 7896 1942 5 ENROUTE
2026-05-07 02:07:09 227 239 7895 1946 5 ENROUTE
2026-05-07 02:07:39 227 242 7888 1949 5 ENROUTE
2026-05-07 02:08:09 236 253 7656 1952 5 DESCENT
2026-05-07 02:08:39 240 271 6965 1954 7 DESCENT
2026-05-07 02:09:09 242 275 6219 1956 8 DESCENT
2026-05-07 02:09:39 243 279 5500 1958 9 DESCENT
2026-05-07 02:10:09 248 275 4756 1959 10 DESCENT
2026-05-07 02:10:39 228 248 4049 1961 12 DESCENT
2026-05-07 02:11:09 161 175 3927 1964 12 ENROUTE
2026-05-07 02:11:39 170 186 3852 1975 12 DESCENT
2026-05-07 02:12:09 163 174 2857 1981 15 APPROACH
2026-05-07 02:12:39 145 152 2219 1986 17 ON FINAL
2026-05-07 02:13:09 146 153 1925 1992 19 ON FINAL
2026-05-07 02:13:39 111 115 1575 1995 20 ON FINAL
2026-05-07 02:14:09 17 20 1568 1996 20 TAXI TO APRON
2026-05-07 02:14:39 8 9 1566 1997 19 TAXI TO APRON
2026-05-07 02:15:09 8 8 1567 1998 20 TAXI TO APRON
2026-05-07 02:15:39 15 18 1567 2000 20 TAXI TO APRON
2026-05-07 02:16:09 17 19 1566 2001 20 TAXI TO APRON
2026-05-07 02:16:39 21 20 1565 2002 19 TAXI TO APRON
2026-05-07 02:17:09 23 23 1564 2003 19 TAXI TO APRON
2026-05-07 02:17:39 21 21 1564 2004 19 TAXI TO APRON
2026-05-07 02:18:09 20 20 1564 2005 19 TAXI TO APRON
2026-05-07 02:18:39 19 20 1564 2006 19 TAXI TO APRON
2026-05-07 02:19:09 17 19 1564 2007 20 TAXI TO APRON
2026-05-07 02:19:39 16 20 1564 2008 21 TAXI TO APRON
2026-05-07 02:20:09 18 19 1565 2009 20 TAXI TO APRON
2026-05-07 02:20:39 18 19 1566 2010 20 TAXI TO APRON
2026-05-07 02:21:09 19 19 1566 2011 20 TAXI TO APRON
2026-05-07 02:21:39 20 20 1567 2012 20 TAXI TO APRON
2026-05-07 02:22:09 20 20 1568 2013 20 TAXI TO APRON
2026-05-07 02:22:39 7 6 1568 2014 20 TAXI TO APRON
2026-05-07 02:23:09 3 0 1568 2015 20 TAXI TO APRON
2026-05-07 02:23:39 2 0 1568 2015 20 TAXI TO APRON
2026-05-07 02:24:09 2 0 1568 2015 20 TAXI TO APRON
2026-05-07 02:24:39 3 0 1568 2015 20 TAXI TO APRON
2026-05-07 02:25:09 2 0 1568 2015 20 TAXI TO APRON
2026-05-07 02:25:39 1 0 1568 2015 20 TAXI TO APRON
2026-05-07 02:26:09 2 0 1568 2015 20 TAXI TO APRON
2026-05-07 02:26:39 1 0 1568 2015 20 TAXI TO APRON
2026-05-07 02:27:09 3 0 1568 2015 20 TAXI TO APRON
2026-05-07 02:27:39 2 0 1568 2015 20 TAXI TO APRON
2026-05-07 02:28:09 3 0 1568 2015 20 TAXI TO APRON
2026-05-07 02:28:39 2 0 1568 2015 20 TAXI TO APRON
2026-05-07 02:29:09 1 0 1568 2015 20 TAXI TO APRON
2026-05-07 02:29:39 2 0 1568 2015 20 TAXI TO APRON
2026-05-07 02:30:09 3 0 1568 2015 20 TAXI TO APRON
2026-05-07 02:30:39 2 0 1568 2015 20 TAXI TO APRON
2026-05-07 02:31:09 3 0 1568 2015 20 TAXI TO APRON
2026-05-07 02:31:39 2 0 1568 2015 20 TAXI TO APRON
2026-05-07 02:32:09 2 0 1568 2015 20 TAXI TO APRON
2026-05-07 02:32:39 2 0 1568 2015 20 TAXI TO APRON
2026-05-07 02:33:09 2 0 1568 2015 20 TAXI TO APRON
  • Join our VA!

    It has been 11 years of great learning, friendships, and stories.

  • Sign up now!